Time,TemperatureF,DewpointF,PressureIn,WindDirection,WindDirectionDegrees,WindSpeedMPH,WindSpeedGustMPH,Humidity,HourlyPrecipIn,Conditions,Clouds,dailyrainin,SoftwareType,DateUTC
2013-03-23 00:11:00,31.4,22.0,29.76,WNW,284,2.0,12.0,69,0.00,,,0.00,weatherlink.com 1.10,2013-03-23 04:11:00,
2013-03-23 00:27:00,31.3,22.0,29.76,East,82,2.0,6.0,69,0.00,,,0.00,weatherlink.com 1.10,2013-03-23 04:27:00,
2013-03-23 00:42:00,31.2,22.0,29.76,WNW,294,0.0,7.0,70,0.00,,,0.00,weatherlink.com 1.10,2013-03-23 04:42:00,
2013-03-23 00:57:00,31.2,22.0,29.76,WNW,294,0.0,4.0,70,0.00,,,0.00,weatherlink.com 1.10,2013-03-23 04:57:00,
2013-03-23 01:12:00,31.0,22.0,29.76,WNW,294,0.0,4.0,70,0.00,,,0.00,weatherlink.com 1.10,2013-03-23 05:12:00,
2013-03-23 01:27:00,30.7,22.0,29.76,WNW,300,0.0,5.0,71,0.00,,,0.00,weatherlink.com 1.10,2013-03-23 05:27:00,
2013-03-23 01:42:00,30.5,22.0,29.76,WNW,300,0.0,5.0,72,0.00,,,0.00,weatherlink.com 1.10,2013-03-23 05:42:00,
2013-03-23 01:57:00,30.5,23.0,29.76,WNW,303,0.0,7.0,73,0.00,,,0.00,weatherlink.com 1.10,2013-03-23 05:57:00,
2013-03-23 02:12:00,30.2,23.0,29.75,WNW,303,0.0,3.0,73,0.00,,,0.00,weatherlink.com 1.10,2013-03-23 06:12:00,
2013-03-23 02:27:00,29.8,22.0,29.75,WNW,303,0.0,1.0,73,0.00,,,0.00,weatherlink.com 1.10,2013-03-23 06:27:00,
2013-03-23 02:42:00,29.3,22.0,29.75,WNW,303,0.0,4.0,74,0.00,,,0.00,weatherlink.com 1.10,2013-03-23 06:42:00,
2013-03-23 02:57:00,29.2,22.0,29.74,WNW,303,2.0,6.0,75,0.00,,,0.00,weatherlink.com 1.10,2013-03-23 06:57:00,
2013-03-23 03:12:00,29.6,23.0,29.73,WNW,303,2.0,4.0,76,0.00,,,0.00,weatherlink.com 1.10,2013-03-23 07:12:00,
2013-03-23 03:27:00,30.3,24.0,29.73,WNW,303,0.0,5.0,77,0.00,,,0.00,weatherlink.com 1.10,2013-03-23 07:27:00,
2013-03-23 03:42:00,30.7,24.0,29.73,WNW,302,1.0,9.0,76,0.00,,,0.00,weatherlink.com 1.10,2013-03-23 07:42:00,
2013-03-23 03:57:00,30.8,24.0,29.73,WNW,302,0.0,6.0,76,0.00,,,0.00,weatherlink.com 1.10,2013-03-23 07:57:00,
2013-03-23 04:12:00,31.2,24.0,29.72,WNW,301,3.0,7.0,76,0.00,,,0.00,weatherlink.com 1.10,2013-03-23 08:12:00,
2013-03-23 04:27:00,31.3,25.0,29.72,WNW,301,1.0,6.0,76,0.00,,,0.00,weatherlink.com 1.10,2013-03-23 08:27:00,
2013-03-23 04:42:00,31.3,25.0,29.72,WNW,301,0.0,6.0,77,0.00,,,0.00,weatherlink.com 1.10,2013-03-23 08:42:00,
2013-03-23 04:57:00,31.2,25.0,29.72,WNW,301,0.0,4.0,77,0.00,,,0.00,weatherlink.com 1.10,2013-03-23 08:57:00,
2013-03-23 05:12:00,31.2,25.0,29.72,WNW,301,0.0,4.0,77,0.00,,,0.00,weatherlink.com 1.10,2013-03-23 09:12:00,
2013-03-23 05:27:00,31.3,25.0,29.72,WNW,301,0.0,4.0,77,0.00,,,0.00,weatherlink.com 1.10,2013-03-23 09:27:00,
2013-03-23 05:42:00,31.3,25.0,29.72,WNW,301,0.0,4.0,76,0.00,,,0.00,weatherlink.com 1.10,2013-03-23 09:42:00,
2013-03-23 05:57:00,31.5,25.0,29.73,WNW,301,3.0,6.0,77,0.00,,,0.00,weatherlink.com 1.10,2013-03-23 09:57:00,
2013-03-23 06:12:00,31.7,25.0,29.73,WSW,249,2.0,6.0,77,0.00,,,0.00,weatherlink.com 1.10,2013-03-23 10:12:00,
2013-03-23 06:27:00,31.8,25.0,29.74,WSW,249,2.0,5.0,77,0.00,,,0.00,weatherlink.com 1.10,2013-03-23 10:27:00,
2013-03-23 06:43:00,31.8,25.0,29.74,West,263,0.0,6.0,77,0.00,,,0.00,weatherlink.com 1.10,2013-03-23 10:43:00,
2013-03-23 06:57:00,31.7,25.0,29.74,WNW,290,0.0,8.0,76,0.00,,,0.00,weatherlink.com 1.10,2013-03-23 10:57:00,
2013-03-23 07:12:00,32.1,24.0,29.74,NW,321,6.0,13.0,72,0.00,,,0.00,weatherlink.com 1.10,2013-03-23 11:12:00,
2013-03-23 07:27:00,32.3,24.0,29.74,NW,306,4.0,10.0,71,0.00,,,0.00,weatherlink.com 1.10,2013-03-23 11:27:00,
2013-03-23 07:42:00,32.2,24.0,29.73,WNW,291,4.0,8.0,71,0.00,,,0.00,weatherlink.com 1.10,2013-03-23 11:42:00,
2013-03-23 07:57:00,32.4,24.0,29.73,WNW,294,3.0,8.0,71,0.00,,,0.00,weatherlink.com 1.10,2013-03-23 11:57:00,
2013-03-23 08:12:00,32.6,24.0,29.73,NW,306,2.0,11.0,70,0.00,,,0.00,weatherlink.com 1.10,2013-03-23 12:12:00,
2013-03-23 08:30:00,32.9,24.0,29.73,West,263,1.0,7.0,69,0.00,,,0.00,weatherlink.com 1.10,2013-03-23 12:30:00,
2013-03-23 08:42:00,33.5,23.0,29.73,NW,322,5.0,12.0,66,0.00,,,0.00,weatherlink.com 1.10,2013-03-23 12:42:00,
2013-03-23 08:57:00,34.1,23.0,29.73,WNW,288,6.0,14.0,63,0.00,,,0.00,weatherlink.com 1.10,2013-03-23 12:57:00,
2013-03-23 09:12:00,35.1,23.0,29.72,WNW,302,7.0,15.0,62,0.00,,,0.00,weatherlink.com 1.10,2013-03-23 13:12:00,
2013-03-23 09:27:00,35.1,23.0,29.71,WNW,283,6.0,15.0,61,0.00,,,0.00,weatherlink.com 1.10,2013-03-23 13:27:00,
2013-03-23 09:42:00,35.1,22.0,29.72,WNW,303,10.0,14.0,59,0.00,,,0.00,weatherlink.com 1.10,2013-03-23 13:42:00,
2013-03-23 09:57:00,34.7,22.0,29.72,NW,326,3.0,16.0,60,0.00,,,0.00,weatherlink.com 1.10,2013-03-23 13:57:00,
2013-03-23 10:12:00,34.6,21.0,29.72,NW,309,6.0,16.0,59,0.00,,,0.00,weatherlink.com 1.10,2013-03-23 14:12:00,
2013-03-23 10:27:00,34.4,21.0,29.73,NW,316,4.0,19.0,58,0.00,,,0.00,weatherlink.com 1.10,2013-03-23 14:27:00,
2013-03-23 10:42:00,34.3,21.0,29.73,NNE,24,6.0,11.0,59,0.00,,,0.00,weatherlink.com 1.10,2013-03-23 14:42:00,
2013-03-23 10:58:00,34.4,21.0,29.73,NW,309,6.0,18.0,59,0.00,,,0.00,weatherlink.com 1.10,2013-03-23 14:58:00,
2013-03-23 11:28:00,35.3,22.0,29.72,North,355,8.0,17.0,58,0.00,,,0.00,weatherlink.com 1.10,2013-03-23 15:28:00,
2013-03-23 11:43:00,36.3,22.0,29.72,NW,309,10.0,18.0,57,0.00,,,0.00,weatherlink.com 1.10,2013-03-23 15:43:00,
2013-03-23 11:58:00,36.8,22.0,29.72,WNW,292,11.0,13.0,56,0.00,,,0.00,weatherlink.com 1.10,2013-03-23 15:58:00,
2013-03-23 12:13:00,37.2,22.0,29.71,WNW,300,7.0,15.0,55,0.00,,,0.00,weatherlink.com 1.10,2013-03-23 16:13:00,
2013-03-23 12:28:00,37.9,22.0,29.71,West,273,0.0,14.0,53,0.00,,,0.00,weatherlink.com 1.10,2013-03-23 16:28:00,
2013-03-23 12:43:00,38.8,22.0,29.71,WNW,294,9.0,14.0,51,0.00,,,0.00,weatherlink.com 1.10,2013-03-23 16:43:00,
2013-03-23 12:58:00,38.4,22.0,29.71,NW,315,8.0,17.0,51,0.00,,,0.00,weatherlink.com 1.10,2013-03-23 16:58:00,
2013-03-23 13:13:00,39.9,21.0,29.70,NW,306,10.0,15.0,48,0.00,,,0.00,weatherlink.com 1.10,2013-03-23 17:13:00,
2013-03-23 13:28:00,40.3,22.0,29.70,WNW,296,6.0,19.0,48,0.00,,,0.00,weatherlink.com 1.10,2013-03-23 17:28:00,
2013-03-23 13:43:00,40.1,21.0,29.70,NW,309,1.0,20.0,46,0.00,,,0.00,weatherlink.com 1.10,2013-03-23 17:43:00,
2013-03-23 13:58:00,40.0,21.0,29.70,WNW,286,3.0,16.0,47,0.00,,,0.00,weatherlink.com 1.10,2013-03-23 17:58:00,
2013-03-23 14:04:00,40.6,21.9,29.70,NW,323,7.0,9.0,47,0.00,,,0.00,Wunderground v.1.15,2013-03-23 18:04:00,
2013-03-23 14:13:00,40.8,21.0,29.69,NNW,332,1.0,19.0,46,0.00,,,0.00,weatherlink.com 1.10,2013-03-23 18:13:00,
2013-03-23 14:28:00,41.3,21.0,29.69,NNW,333,7.0,26.0,45,0.00,,,0.00,weatherlink.com 1.10,2013-03-23 18:28:00,
2013-03-23 14:43:00,40.5,21.0,29.69,WNW,302,12.0,16.0,46,0.00,,,0.00,weatherlink.com 1.10,2013-03-23 18:43:00,
2013-03-23 14:58:00,40.2,21.0,29.69,WNW,292,5.0,30.0,46,0.00,,,0.00,weatherlink.com 1.10,2013-03-23 18:58:00,
2013-03-23 15:13:00,40.2,21.0,29.68,NW,322,3.0,20.0,47,0.00,,,0.00,weatherlink.com 1.10,2013-03-23 19:13:00,
2013-03-23 15:28:00,40.8,21.0,29.68,WNW,290,6.0,20.0,46,0.00,,,0.00,weatherlink.com 1.10,2013-03-23 19:28:00,
2013-03-23 15:43:00,41.3,22.0,29.68,WNW,283,7.0,17.0,46,0.00,,,0.00,weatherlink.com 1.10,2013-03-23 19:43:00,
2013-03-23 15:58:00,41.7,22.0,29.68,WNW,300,10.0,12.0,46,0.00,,,0.00,weatherlink.com 1.10,2013-03-23 19:58:00,
2013-03-23 16:13:00,40.8,20.0,29.68,West,280,11.0,23.0,44,0.00,,,0.00,weatherlink.com 1.10,2013-03-23 20:13:00,
2013-03-23 16:28:00,40.4,21.0,29.69,North,355,2.0,18.0,46,0.00,,,0.00,weatherlink.com 1.10,2013-03-23 20:28:00,
2013-03-23 16:43:00,40.2,21.0,29.69,WNW,290,5.0,22.0,47,0.00,,,0.00,weatherlink.com 1.10,2013-03-23 20:43:00,
2013-03-23 16:58:00,40.2,21.0,29.70,WNW,290,4.0,26.0,46,0.00,,,0.00,weatherlink.com 1.10,2013-03-23 20:58:00,
2013-03-23 17:13:00,39.7,20.0,29.70,WNW,298,10.0,25.0,46,0.00,,,0.00,weatherlink.com 1.10,2013-03-23 21:13:00,
2013-03-23 17:28:00,39.2,21.0,29.70,West,277,5.0,13.0,48,0.00,,,0.00,weatherlink.com 1.10,2013-03-23 21:28:00,
2013-03-23 17:43:00,39.2,21.0,29.71,North,350,0.0,15.0,48,0.00,,,0.00,weatherlink.com 1.10,2013-03-23 21:43:00,
2013-03-23 17:58:00,39.1,21.0,29.72,West,280,5.0,12.0,49,0.00,,,0.00,weatherlink.com 1.10,2013-03-23 21:58:00,
2013-03-23 18:13:00,39.1,21.0,29.72,WNW,287,1.0,12.0,48,0.00,,,0.00,weatherlink.com 1.10,2013-03-23 22:13:00,
2013-03-23 18:28:00,38.5,20.0,29.73,WNW,292,7.0,14.0,48,0.00,,,0.00,weatherlink.com 1.10,2013-03-23 22:28:00,
2013-03-23 18:43:00,38.3,20.0,29.74,NNW,338,4.0,15.0,49,0.00,,,0.00,weatherlink.com 1.10,2013-03-23 22:43:00,
2013-03-23 18:58:00,37.8,20.0,29.74,NW,319,0.0,10.0,49,0.00,,,0.00,weatherlink.com 1.10,2013-03-23 22:58:00,
2013-03-23 19:13:00,37.4,20.0,29.75,NNW,340,0.0,6.0,50,0.00,,,0.00,weatherlink.com 1.10,2013-03-23 23:13:00,
2013-03-23 19:28:00,37.1,20.0,29.75,West,269,0.0,3.0,50,0.00,,,0.00,weatherlink.com 1.10,2013-03-23 23:28:00,
2013-03-23 19:43:00,36.9,20.0,29.76,NW,313,0.0,6.0,51,0.00,,,0.00,weatherlink.com 1.10,2013-03-23 23:43:00,
2013-03-23 19:58:00,36.6,20.0,29.76,NE,39,7.0,17.0,51,0.00,,,0.00,weatherlink.com 1.10,2013-03-23 23:58:00,
2013-03-23 20:13:00,36.6,20.0,29.77,NW,311,5.0,15.0,51,0.00,,,0.00,weatherlink.com 1.10,2013-03-24 00:13:00,
2013-03-23 20:28:00,36.3,20.0,29.77,WNW,302,1.0,10.0,52,0.00,,,0.00,weatherlink.com 1.10,2013-03-24 00:28:00,
2013-03-23 20:43:00,36.0,20.0,29.78,NW,306,7.0,9.0,53,0.00,,,0.00,weatherlink.com 1.10,2013-03-24 00:43:00,
2013-03-23 20:58:00,35.8,20.0,29.78,WNW,290,8.0,11.0,54,0.00,,,0.00,weatherlink.com 1.10,2013-03-24 00:58:00,
2013-03-23 21:13:00,35.6,20.0,29.79,NNW,340,0.0,11.0,54,0.00,,,0.00,weatherlink.com 1.10,2013-03-24 01:13:00,
2013-03-23 21:28:00,35.3,20.0,29.79,NNW,333,4.0,9.0,54,0.00,,,0.00,weatherlink.com 1.10,2013-03-24 01:28:00,
2013-03-23 21:43:00,35.0,20.0,29.80,WNW,301,2.0,13.0,55,0.00,,,0.00,weatherlink.com 1.10,2013-03-24 01:43:00,
2013-03-23 21:59:00,34.7,20.0,29.80,NW,311,3.0,6.0,56,0.00,,,0.00,weatherlink.com 1.10,2013-03-24 01:59:00,
2013-03-23 22:14:00,34.4,20.0,29.80,NW,318,4.0,10.0,56,0.00,,,0.00,weatherlink.com 1.10,2013-03-24 02:14:00,
2013-03-23 22:29:00,34.4,20.0,29.80,NW,313,0.0,8.0,57,0.00,,,0.00,weatherlink.com 1.10,2013-03-24 02:29:00,
2013-03-23 22:44:00,34.5,21.0,29.80,NW,312,3.0,8.0,57,0.00,,,0.00,weatherlink.com 1.10,2013-03-24 02:44:00,
2013-03-23 22:59:00,34.6,21.0,29.80,WNW,290,5.0,5.0,57,0.00,,,0.00,weatherlink.com 1.10,2013-03-24 02:59:00,
2013-03-23 23:14:00,34.5,21.0,29.80,WNW,288,4.0,10.0,57,0.00,,,0.00,weatherlink.com 1.10,2013-03-24 03:14:00,
2013-03-23 23:29:00,34.4,21.0,29.80,NW,315,5.0,15.0,59,0.00,,,0.00,weatherlink.com 1.10,2013-03-24 03:29:00,
2013-03-23 23:44:00,34.2,21.0,29.80,West,274,6.0,11.0,60,0.00,,,0.00,weatherlink.com 1.10,2013-03-24 03:44:00,